CPA841 KJFK-VHHH
Flight info
| Callsign | CPA841 |
|---|---|
| Flight time | N/A |
| Altitude | 34000 |
| Route | GREKI DCT JUDDS DCT CAM DCT YVO DCT 50N080W 55N084W 59N090W 63N100W 65N110W 66N120W 67N130W DCT GOATS DCT BTT NCA30 OME R338 NATES/N0493F350 R220 NYMPH/N0498F360 R220 NOGAL/N0499F370 R220 NANAC/N0490F380 R220 IXE Y88 NAKTU Y12 KOHWA Y54 TURFY Y24 KOSHI Y50 IGMON A1 APU DCT MKG A1 ELATO V522 ABBEY |
| Aircraft | A35K/H-SDE2E3GHIJ1J3J4J5LM1ORWXY/LB1D1 |
Departure
| Time | 2026-05-09 15:56 |
|---|---|
| Airport | John F. Kennedy International Airport (KJFK) |
Arrival
| Time | N/A |
|---|---|
| Airport | Hong Kong International Airport (VHHH) |
| Time | Latitude | Longitude | Altitude | Speed | Heading |
|---|---|---|---|---|---|
| 2026-05-09 15:29 | 40.64938 | -73.78982 | 30 ft | 0 kts | 199° |
| 2026-05-09 15:43 | 40.64946 | -73.78979 | 29 ft | 4 kts | 199° |
| 2026-05-09 15:43 | 40.64972 | -73.78967 | 29 ft | 4 kts | 199° |
| 2026-05-09 15:44 | 40.64994 | -73.78957 | 28 ft | 4 kts | 193° |
| 2026-05-09 15:44 | 40.65014 | -73.78958 | 29 ft | 4 kts | 123° |
| 2026-05-09 15:44 | 40.65015 | -73.78984 | 29 ft | 4 kts | 61° |
| 2026-05-09 15:44 | 40.65002 | -73.79016 | 29 ft | 4 kts | 61° |
| 2026-05-09 15:45 | 40.64999 | -73.79023 | 29 ft | 0 kts | 61° |
| 2026-05-09 15:47 | 40.65000 | -73.79021 | 29 ft | 1 kts | 61° |
| 2026-05-09 15:47 | 40.65006 | -73.79007 | 29 ft | 2 kts | 61° |
| 2026-05-09 15:48 | 40.65017 | -73.78980 | 29 ft | 5 kts | 61° |
| 2026-05-09 15:48 | 40.65044 | -73.78933 | 29 ft | 8 kts | 36° |
| 2026-05-09 15:48 | 40.65105 | -73.78911 | 29 ft | 11 kts | 20° |
| 2026-05-09 15:48 | 40.65140 | -73.78824 | 29 ft | 12 kts | 76° |
| 2026-05-09 15:49 | 40.65167 | -73.78704 | 29 ft | 14 kts | 65° |
| 2026-05-09 15:49 | 40.65209 | -73.78603 | 33 ft | 11 kts | 61° |
| 2026-05-09 15:49 | 40.65255 | -73.78494 | 29 ft | 15 kts | 63° |
| 2026-05-09 15:49 | 40.65257 | -73.78369 | 30 ft | 13 kts | 112° |
| 2026-05-09 15:50 | 40.65216 | -73.78270 | 31 ft | 12 kts | 121° |
| 2026-05-09 15:50 | 40.65169 | -73.78164 | 29 ft | 16 kts | 121° |
| 2026-05-09 15:50 | 40.65118 | -73.78038 | 28 ft | 11 kts | 98° |
| 2026-05-09 15:50 | 40.65143 | -73.77986 | 27 ft | 5 kts | 36° |
| 2026-05-09 15:51 | 40.65165 | -73.77965 | 26 ft | 5 kts | 34° |
| 2026-05-09 15:51 | 40.65210 | -73.77926 | 29 ft | 10 kts | 32° |
| 2026-05-09 15:51 | 40.65278 | -73.77873 | 28 ft | 12 kts | 30° |
| 2026-05-09 15:51 | 40.65332 | -73.77807 | 30 ft | 9 kts | 76° |
| 2026-05-09 15:52 | 40.65275 | -73.77635 | 29 ft | 13 kts | 121° |
| 2026-05-09 15:52 | 40.65224 | -73.77523 | 24 ft | 16 kts | 121° |
| 2026-05-09 15:52 | 40.65163 | -73.77389 | 31 ft | 18 kts | 121° |
| 2026-05-09 15:53 | 40.65096 | -73.77242 | 28 ft | 19 kts | 121° |
| 2026-05-09 15:53 | 40.65030 | -73.77096 | 27 ft | 18 kts | 121° |
| 2026-05-09 15:53 | 40.64967 | -73.76956 | 27 ft | 18 kts | 121° |
| 2026-05-09 15:53 | 40.64902 | -73.76814 | 27 ft | 18 kts | 121° |
| 2026-05-09 15:54 | 40.64883 | -73.76719 | 27 ft | 9 kts | 72° |
| 2026-05-09 15:54 | 40.64927 | -73.76666 | 27 ft | 9 kts | 33° |
| 2026-05-09 15:54 | 40.64981 | -73.76619 | 27 ft | 11 kts | 33° |
| 2026-05-09 15:54 | 40.65049 | -73.76565 | 27 ft | 12 kts | 31° |
| 2026-05-09 15:55 | 40.65091 | -73.76488 | 27 ft | 10 kts | 91° |
| 2026-05-09 15:55 | 40.65068 | -73.76410 | 28 ft | 9 kts | 118° |
| 2026-05-09 15:55 | 40.65015 | -73.76372 | 28 ft | 10 kts | 191° |
| 2026-05-09 15:55 | 40.64910 | -73.76443 | 27 ft | 36 kts | 209° |
| 2026-05-09 15:56 | 40.64479 | -73.76781 | 31 ft | 106 kts | 210° |
| 2026-05-09 15:56 | 40.63658 | -73.77423 | 27 ft | 167 kts | 211° |
| 2026-05-09 15:56 | 40.62549 | -73.78308 | 370 ft | 192 kts | 211° |
| 2026-05-09 15:56 | 40.61435 | -73.79213 | 1207 ft | 188 kts | 211° |
| 2026-05-09 15:57 | 40.60302 | -73.80153 | 1542 ft | 201 kts | 212° |
| 2026-05-09 15:57 | 40.59087 | -73.81182 | 1777 ft | 213 kts | 212° |
| 2026-05-09 15:57 | 40.57792 | -73.82266 | 1993 ft | 228 kts | 211° |
| 2026-05-09 15:57 | 40.56345 | -73.83260 | 2174 ft | 242 kts | 194° |
| 2026-05-09 15:58 | 40.54664 | -73.83306 | 2529 ft | 247 kts | 165° |
| 2026-05-09 15:58 | 40.53154 | -73.82216 | 3006 ft | 254 kts | 138° |
| 2026-05-09 15:58 | 40.52193 | -73.80236 | 3414 ft | 265 kts | 110° |
| 2026-05-09 15:58 | 40.52036 | -73.77801 | 3823 ft | 274 kts | 82° |
| 2026-05-09 15:59 | 40.52755 | -73.75461 | 4243 ft | 281 kts | 54° |
| 2026-05-09 15:59 | 40.54134 | -73.73612 | 4717 ft | 284 kts | 40° |
| 2026-05-09 15:59 | 40.55690 | -73.71995 | 5195 ft | 287 kts | 37° |
| 2026-05-09 15:59 | 40.57284 | -73.70400 | 5668 ft | 289 kts | 37° |
| 2026-05-09 16:00 | 40.58891 | -73.68796 | 6187 ft | 291 kts | 37° |
| 2026-05-09 16:00 | 40.59414 | -73.68273 | 6351 ft | 291 kts | 37° |
| 2026-05-09 16:00 | 40.62114 | -73.65573 | 7216 ft | 295 kts | 37° |
| 2026-05-09 16:00 | 40.63760 | -73.63926 | 7735 ft | 297 kts | 37° |
| 2026-05-09 16:01 | 40.65404 | -73.62281 | 8260 ft | 299 kts | 37° |
| 2026-05-09 16:01 | 40.67069 | -73.60616 | 8775 ft | 301 kts | 37° |
| 2026-05-09 16:01 | 40.68745 | -73.58939 | 9280 ft | 304 kts | 37° |
| 2026-05-09 16:01 | 40.70433 | -73.57248 | 9783 ft | 306 kts | 37° |
| 2026-05-09 16:02 | 40.72135 | -73.55533 | 10245 ft | 312 kts | 37° |
| 2026-05-09 16:02 | 40.75708 | -73.51905 | 10729 ft | 337 kts | 37° |
| 2026-05-09 16:02 | 40.77595 | -73.49977 | 10963 ft | 349 kts | 37° |
| 2026-05-09 16:03 | 40.79609 | -73.48082 | 11194 ft | 362 kts | 28° |
| 2026-05-09 16:03 | 40.81957 | -73.46749 | 11440 ft | 371 kts | 16° |
| 2026-05-09 16:03 | 40.84483 | -73.45838 | 11676 ft | 381 kts | 11° |
| 2026-05-09 16:03 | 40.87118 | -73.45148 | 11920 ft | 393 kts | 8° |
| 2026-05-09 16:04 | 40.89811 | -73.44575 | 12278 ft | 399 kts | 6° |
| 2026-05-09 16:04 | 40.92568 | -73.44024 | 12763 ft | 402 kts | 6° |
| 2026-05-09 16:04 | 40.95386 | -73.43450 | 13265 ft | 405 kts | 7° |
| 2026-05-09 16:04 | 40.98150 | -73.42862 | 13712 ft | 410 kts | 7° |
| 2026-05-09 16:05 | 41.00960 | -73.42249 | 14245 ft | 412 kts | 7° |
| 2026-05-09 16:05 | 41.03790 | -73.41612 | 14730 ft | 414 kts | 7° |
| 2026-05-09 16:05 | 41.06653 | -73.40958 | 15192 ft | 417 kts | 7° |
| 2026-05-09 16:05 | 41.09511 | -73.40302 | 15643 ft | 420 kts | 7° |
| 2026-05-09 16:06 | 41.11424 | -73.39861 | 15930 ft | 421 kts | 7° |
| 2026-05-09 16:06 | 41.14364 | -73.39184 | 16369 ft | 424 kts | 7° |
| 2026-05-09 16:06 | 41.22225 | -73.37374 | 17484 ft | 432 kts | 7° |
| 2026-05-09 16:06 | 41.28174 | -73.36005 | 18311 ft | 436 kts | 7° |
| 2026-05-09 16:07 | 41.32178 | -73.35081 | 18871 ft | 440 kts | 7° |